Time;durP1;ratioP1;P1;durP2;ratioP2;P2;SDS_P1;SDS_P2;PMS_P1;PMS_P2;Temp;Humidity;BMP_temperature;BMP_pressure;BME280_temperature;BME280_humidity;BME280_pressure;Samples;Min_cycle;Max_cycle;Signal;HPM_P1;HPM_P2
2023/01/12 00:01:10;;;;;;;31.98;5.50;;;;;;;8.40;100.00;100630.38;5034208;28;20132;-63
2023/01/12 00:03:35;;;;;;;26.27;6.07;;;;;;;8.74;100.00;100681.91;5034192;28;20061;-66
2023/01/12 00:06:04;;;;;;;16.25;4.25;;;;;;;8.29;100.00;100598.28;5034302;28;20029;-65
2023/01/12 00:08:30;;;;;;;26.70;5.03;;;;;;;8.63;100.00;100653.34;5017337;28;20072;-66
2023/01/12 00:10:56;;;;;;;28.27;6.68;;;;;;;8.34;100.00;100617.41;5034023;28;20450;-66
2023/01/12 00:13:21;;;;;;;27.38;6.03;;;;;;;8.65;100.00;100656.78;5034208;28;20141;-67
2023/01/12 00:18:31;;;;;;;33.50;6.85;;;;;;;8.45;100.00;100590.88;5034235;28;20080;-61
2023/01/12 00:20:56;;;;;;;37.10;8.18;;;;;;;8.60;100.00;100642.94;5034168;28;20041;-61
2023/01/12 00:23:24;;;;;;;37.40;7.68;;;;;;;8.43;100.00;100606.66;5033951;28;20033;-67
2023/01/12 00:25:50;;;;;;;38.63;7.10;;;;;;;8.13;100.00;100539.28;5033834;28;20037;-66
2023/01/12 00:28:15;;;;;;;42.85;8.05;;;;;;;8.44;100.00;100591.78;5016314;28;20041;-64
2023/01/12 00:30:41;;;;;;;34.53;7.63;;;;;;;8.26;100.00;100560.81;5033793;28;20044;-66
2023/01/12 00:33:07;;;;;;;43.55;7.80;;;;;;;8.22;100.00;100556.53;5016330;28;20053;-65
2023/01/12 00:35:34;;;;;;;35.55;8.10;;;;;;;8.57;100.00;100614.16;5033980;28;20037;-63
2023/01/12 00:38:00;;;;;;;44.15;8.60;;;;;;;8.22;100.00;100546.91;5034014;28;20036;-65
2023/01/12 00:40:25;;;;;;;46.17;9.48;;;;;;;8.66;100.00;100608.66;5015874;28;20404;-66
2023/01/12 00:45:34;;;;;;;49.30;9.07;;;;;;;8.43;100.00;100562.06;5033730;28;20048;-66
2023/01/12 00:47:59;;;;;;;52.65;9.63;;;;;;;8.47;100.00;100553.22;5033860;28;20025;-66
2023/01/12 00:50:25;;;;;;;54.08;10.70;;;;;;;8.75;100.00;100583.91;5015848;28;20072;-67
2023/01/12 00:52:50;;;;;;;52.03;11.13;;;;;;;7.59;100.00;100375.72;5015917;28;20535;-65
2023/01/12 00:55:16;;;;;;;56.72;9.88;;;;;;;8.78;100.00;100589.09;5033733;28;20033;-65
2023/01/12 00:57:41;;;;;;;50.70;10.65;;;;;;;8.36;100.00;100501.97;5033353;28;20477;-67
2023/01/12 01:00:07;;;;;;;58.97;10.23;;;;;;;8.28;100.00;100478.59;5033624;28;20080;-66
2023/01/12 01:02:33;;;;;;;51.60;10.80;;;;;;;8.71;100.00;100546.41;5015787;28;20447;-65
2023/01/12 01:04:58;;;;;;;60.05;10.95;;;;;;;8.82;100.00;100553.94;5033246;28;20089;-68
2023/01/12 01:07:23;;;;;;;56.47;10.00;;;;;;;8.48;100.00;100493.75;5032542;28;20481;-66
2023/01/12 01:09:49;;;;;;;49.63;9.93;;;;;;;8.86;100.00;100535.47;5032880;28;20607;-65
2023/01/12 01:12:15;;;;;;;58.28;9.82;;;;;;;8.48;100.00;100471.00;5031605;28;20041;-66
2023/01/12 01:14:40;;;;;;;57.80;10.18;;;;;;;8.93;100.00;100541.38;5032047;28;20060;-65
2023/01/12 01:17:06;;;;;;;58.40;10.32;;;;;;;8.90;100.00;100530.97;5032720;28;20033;-65
2023/01/12 01:19:31;;;;;;;58.92;11.48;;;;;;;8.96;100.00;100534.25;5015320;28;20087;-63
2023/01/12 01:21:56;;;;;;;61.40;10.23;;;;;;;8.61;100.00;100478.50;5031915;28;20034;-65
2023/01/12 01:24:22;;;;;;;45.28;9.50;;;;;;;8.97;100.00;100535.97;5032908;28;20048;-65
2023/01/12 01:26:49;;;;;;;66.88;10.93;;;;;;;8.97;100.00;100540.38;5033035;28;20041;-63
2023/01/12 01:29:15;;;;;;;43.97;9.48;;;;;;;9.00;100.00;100540.28;5015003;28;20532;-63
2023/01/12 01:31:40;;;;;;;58.45;10.82;;;;;;;9.00;100.00;100524.53;5015255;28;20122;-63
2023/01/12 01:34:05;;;;;;;57.05;11.18;;;;;;;8.90;100.00;100512.59;5032797;28;20037;-63
2023/01/12 01:36:31;;;;;;;46.53;9.02;;;;;;;9.00;100.00;100543.75;5015174;28;20041;-65
2023/01/12 01:38:56;;;;;;;41.95;7.82;;;;;;;8.67;100.00;100467.84;5015249;28;20469;-64
2023/01/12 01:41:25;;;;;;;42.10;8.65;;;;;;;8.98;100.00;100529.84;5015148;28;20048;-66
2023/01/12 01:43:57;;;;;;;49.83;10.20;;;;;;;8.66;100.00;100453.00;5032783;28;20025;-66
2023/01/12 01:46:30;;;;;;;37.60;8.07;;;;;;;8.92;100.00;100514.28;5033013;28;20116;-64
2023/01/12 01:48:57;;;;;;;39.53;7.00;;;;;;;8.98;100.00;100526.34;5014849;28;20439;-62
2023/01/12 01:51:22;;;;;;;33.72;6.75;;;;;;;8.96;100.00;100508.00;5015024;28;20060;-62
2023/01/12 01:53:48;;;;;;;32.50;6.40;;;;;;;8.56;100.00;100417.44;5015152;28;20076;-65
2023/01/12 01:56:19;;;;;;;34.17;6.93;;;;;;;8.90;100.00;100488.97;5015098;28;20075;-64
2023/01/12 01:58:53;;;;;;;26.48;6.20;;;;;;;8.89;100.00;100479.38;5032704;28;20030;-65
2023/01/12 02:01:19;;;;;;;19.38;5.53;;;;;;;8.93;100.00;100496.75;5032843;28;20032;-65
2023/01/12 02:03:44;;;;;;;24.08;5.38;;;;;;;8.73;100.00;100451.88;5032086;28;20416;-65
2023/01/12 02:06:10;;;;;;;24.00;5.25;;;;;;;8.88;100.00;100470.63;5014741;28;20041;-65
2023/01/12 02:08:57;;;;;;;23.85;5.35;;;;;;;8.89;100.00;100476.75;4997258;28;20445;-65
2023/01/12 02:17:23;;;;;;;27.92;5.43;;;;;;;8.88;100.00;100446.16;5032198;28;20051;-63
2023/01/12 02:20:18;;;;;;;32.00;6.03;;;;;;;8.46;100.00;100365.25;5032058;28;20244;-63
2023/01/12 02:22:57;;;;;;;27.33;6.10;;;;;;;8.89;100.00;100435.63;5010164;28;20045;-63
2023/01/12 02:25:47;;;;;;;32.05;6.85;;;;;;;8.93;100.00;100439.84;5014237;28;20044;-64
2023/01/12 02:28:21;;;;;;;30.60;5.82;;;;;;;8.96;100.00;100428.41;5031891;28;20357;-62
2023/01/12 02:31:13;;;;;;;33.25;7.15;;;;;;;8.99;100.00;100417.78;5031822;28;20102;-64
2023/01/12 02:33:55;;;;;;;28.98;5.80;;;;;;;8.53;100.00;100337.06;5013237;28;20286;-64
2023/01/12 02:36:48;;;;;;;32.60;5.93;;;;;;;8.96;100.00;100402.16;5031820;28;20448;-65
2023/01/12 02:39:27;;;;;;;24.60;5.25;;;;;;;8.53;100.00;100347.56;5032131;28;20564;-63
2023/01/12 02:45:08;;;;;;;27.13;6.03;;;;;;;8.90;100.00;100379.56;5016863;28;20040;-64
2023/01/12 02:47:48;;;;;;;29.08;5.95;;;;;;;8.61;100.00;100344.72;5014258;28;20040;-63
2023/01/12 02:50:19;;;;;;;22.95;5.88;;;;;;;8.13;100.00;100253.53;5013987;28;20036;-62
2023/01/12 02:52:47;;;;;;;23.05;5.32;;;;;;;8.64;100.00;100331.50;5014075;28;20071;-68
2023/01/12 02:55:14;;;;;;;23.13;4.55;;;;;;;8.38;100.00;100285.97;5031760;28;20040;-63
2023/01/12 02:57:40;;;;;;;25.50;6.78;;;;;;;8.75;100.00;100347.75;5013832;28;20044;-64
2023/01/12 03:00:06;;;;;;;25.42;4.68;;;;;;;8.32;100.00;100253.81;5013883;28;20030;-64
2023/01/12 03:02:32;;;;;;;23.80;4.88;;;;;;;8.36;100.00;100266.81;4997619;28;20029;-62
2023/01/12 03:04:57;;;;;;;23.50;4.47;;;;;;;8.75;100.00;100329.38;5013680;28;20519;-65
2023/01/12 03:07:25;;;;;;;32.05;4.72;;;;;;;8.76;100.00;100320.56;5031755;28;20480;-65
2023/01/12 03:10:12;;;;;;;25.52;5.72;;;;;;;8.68;100.00;100301.63;5031936;28;20033;-63
2023/01/12 03:12:38;;;;;;;16.17;4.05;;;;;;;8.73;100.00;100305.78;5031479;28;20048;-64
2023/01/12 03:15:06;;;;;;;18.15;4.78;;;;;;;8.27;100.00;100213.75;5013849;28;20473;-68
2023/01/12 03:17:35;;;;;;;18.08;4.97;;;;;;;8.35;100.00;100185.56;5013814;28;20037;-68
2023/01/12 03:20:23;;;;;;;21.83;5.00;;;;;;;8.63;100.00;100254.56;5013806;28;20034;-65
2023/01/12 03:22:51;;;;;;;19.08;3.90;;;;;;;8.55;100.00;100214.63;5031490;28;20042;-67
2023/01/12 03:25:16;;;;;;;13.10;3.53;;;;;;;8.34;100.00;100165.50;5013797;28;20095;-67
2023/01/12 03:27:45;;;;;;;19.15;3.70;;;;;;;8.23;100.00;100126.47;5031339;28;20041;-63
2023/01/12 03:30:17;;;;;;;16.15;3.50;;;;;;;8.59;100.00;100174.22;5013878;28;20405;-65
2023/01/12 03:32:42;;;;;;;15.77;3.60;;;;;;;7.89;100.00;100045.53;5031425;28;20021;-68
2023/01/12 03:35:08;;;;;;;12.65;3.53;;;;;;;8.24;100.00;100090.63;5013762;28;20037;-65
2023/01/12 03:37:36;;;;;;;13.80;3.47;;;;;;;8.22;100.00;100113.44;5031561;28;20029;-67
2023/01/12 03:40:21;;;;;;;15.43;4.30;;;;;;;8.63;100.00;100185.47;5013822;28;20137;-68
2023/01/12 03:43:12;;;;;;;17.05;3.83;;;;;;;8.61;100.00;100184.69;5013954;28;20124;-69
2023/01/12 03:45:39;;;;;;;16.48;3.88;;;;;;;8.55;100.00;100138.53;5015306;28;20164;-68
2023/01/12 03:48:19;;;;;;;14.82;3.65;;;;;;;8.24;100.00;100103.75;5034921;28;20032;-66
2023/01/12 03:50:52;;;;;;;12.63;3.95;;;;;;;8.17;100.00;100089.16;5034620;28;20431;-64
2023/01/12 03:53:20;;;;;;;11.10;4.28;;;;;;;8.42;100.00;100125.00;5017275;28;20051;-69
2023/01/12 03:55:47;;;;;;;17.00;4.25;;;;;;;8.45;100.00;100122.25;5017423;28;20495;-70
2023/01/12 03:58:12;;;;;;;13.15;3.75;;;;;;;8.42;100.00;100137.25;5017262;28;20040;-70
2023/01/12 04:00:38;;;;;;;10.50;3.63;;;;;;;8.06;100.00;100044.94;5017292;28;20041;-70
2023/01/12 04:03:11;;;;;;;14.70;3.50;;;;;;;8.45;100.00;100121.41;5016874;28;20037;-69
2023/01/12 04:05:37;;;;;;;10.93;2.80;;;;;;;8.48;100.00;100088.06;5034851;28;20655;-68
2023/01/12 04:08:02;;;;;;;11.20;3.45;;;;;;;8.47;100.00;100114.31;5000493;28;20036;-69
2023/01/12 04:10:28;;;;;;;12.88;3.85;;;;;;;8.47;100.00;100088.97;5000398;28;20091;-69
2023/01/12 04:12:53;;;;;;;9.57;3.13;;;;;;;8.46;100.00;100102.97;5034491;28;20046;-68
2023/01/12 04:15:19;;;;;;;9.02;3.45;;;;;;;8.19;100.00;100030.53;5034434;28;20128;-70
2023/01/12 04:17:44;;;;;;;9.27;3.35;;;;;;;8.34;100.00;100051.00;5034388;28;20041;-67
2023/01/12 04:20:10;;;;;;;9.25;3.10;;;;;;;8.41;100.00;100064.72;5034550;28;20037;-68
2023/01/12 04:22:41;;;;;;;9.00;3.30;;;;;;;8.17;100.00;100029.69;5016692;28;20112;-67
2023/01/12 04:25:08;;;;;;;8.23;3.25;;;;;;;8.09;100.00;100012.53;5001596;28;20136;-65
2023/01/12 04:27:33;;;;;;;10.55;2.92;;;;;;;8.11;100.00;100022.06;5034396;28;20544;-65
2023/01/12 04:29:58;;;;;;;10.80;2.65;;;;;;;8.14;100.00;100008.88;5034061;28;20160;-68
2023/01/12 04:32:24;;;;;;;10.88;2.70;;;;;;;8.44;100.00;100065.47;5016375;28;20069;-66
2023/01/12 04:34:49;;;;;;;9.43;2.50;;;;;;;7.97;100.00;100000.72;5016754;28;20042;-65
2023/01/12 04:37:14;;;;;;;8.35;2.92;;;;;;;8.30;100.00;100019.66;5034312;28;20060;-66
2023/01/12 04:39:40;;;;;;;8.75;2.42;;;;;;;7.83;100.00;99940.94;5034111;28;20033;-67
2023/01/12 04:42:59;;;;;;;9.13;2.35;;;;;;;8.15;100.00;99986.09;5033927;28;20033;-69
2023/01/12 04:44:50;;;;;;;6.25;2.55;;;;;;;8.26;100.00;100016.25;5018968;28;20148;-65
2023/01/12 04:47:15;;;;;;;10.45;2.55;;;;;;;8.52;100.00;100073.06;5016462;28;20049;-64
2023/01/12 04:49:41;;;;;;;10.05;2.97;;;;;;;8.16;100.00;100017.53;5033955;28;20056;-64
2023/01/12 04:52:06;;;;;;;10.63;2.58;;;;;;;8.57;100.00;100065.03;5034303;28;20495;-65
2023/01/12 04:54:31;;;;;;;8.40;3.00;;;;;;;8.34;100.00;100031.78;5033869;28;20060;-66
2023/01/12 04:56:57;;;;;;;9.75;2.58;;;;;;;8.59;100.00;100087.66;5032867;28;20037;-66
2023/01/12 04:59:22;;;;;;;10.52;3.58;;;;;;;8.52;100.00;100059.09;5033596;28;20075;-64
2023/01/12 05:01:47;;;;;;;10.65;2.28;;;;;;;8.60;100.00;100062.28;5016054;28;20065;-66
2023/01/12 05:04:13;;;;;;;7.45;2.08;;;;;;;8.62;100.00;100034.22;5033682;28;20144;-66
2023/01/12 05:06:39;;;;;;;9.60;2.22;;;;;;;8.57;100.00;100051.91;5016081;28;20037;-65
2023/01/12 05:11:48;;;;;;;4.80;1.70;;;;;;;8.77;100.00;100042.41;5033769;28;20078;-64
2023/01/12 05:14:13;;;;;;;4.72;1.65;;;;;;;8.81;100.00;100075.50;5015558;28;20120;-64
2023/01/12 05:16:39;;;;;;;5.25;1.83;;;;;;;8.67;100.00;100046.25;5033712;28;20396;-62
2023/01/12 05:19:04;;;;;;;9.43;2.03;;;;;;;8.45;100.00;100011.25;5033557;28;20040;-64
2023/01/12 05:21:29;;;;;;;7.18;1.83;;;;;;;8.61;100.00;100001.06;5033989;28;20040;-66
2023/01/12 05:23:55;;;;;;;5.05;1.20;;;;;;;8.63;100.00;100015.81;5015837;28;20038;-64
2023/01/12 05:26:20;;;;;;;5.85;1.15;;;;;;;9.06;100.00;100054.41;5033216;28;20043;-64
2023/01/12 05:28:49;;;;;;;5.25;1.38;;;;;;;9.10;100.00;100048.13;5032794;28;20124;-65
2023/01/12 05:31:15;;;;;;;4.53;1.40;;;;;;;9.19;100.00;100057.41;5015330;28;20132;-63
2023/01/12 05:33:41;;;;;;;4.45;1.20;;;;;;;8.88;100.00;99987.72;5015158;28;20128;-65
2023/01/12 05:36:09;;;;;;;6.80;1.52;;;;;;;9.28;100.00;100039.50;5015190;28;20033;-63
2023/01/12 05:38:34;;;;;;;9.15;1.70;;;;;;;9.33;100.00;100045.47;5032918;28;20112;-63
2023/01/12 05:41:01;;;;;;;7.38;1.40;;;;;;;9.34;100.00;100041.91;5032833;28;20144;-65
2023/01/12 05:46:11;;;;;;;7.95;1.73;;;;;;;9.05;100.00;99995.78;5032890;28;20048;-64
2023/01/12 05:48:37;;;;;;;6.22;1.88;;;;;;;9.52;100.00;100056.94;5015033;28;20037;-62
2023/01/12 05:51:04;;;;;;;13.48;1.98;;;;;;;9.56;100.00;100041.91;5032465;28;20029;-62
2023/01/12 05:53:30;;;;;;;11.43;2.50;;;;;;;9.60;100.00;100054.84;5014753;28;20128;-63
2023/01/12 05:55:55;;;;;;;14.57;2.85;;;;;;;9.19;100.00;99976.88;5032792;28;20554;-67
2023/01/12 05:58:21;;;;;;;18.38;2.42;;;;;;;9.66;100.00;100056.34;5032625;28;20030;-63
2023/01/12 06:00:46;;;;;;;10.63;2.95;;;;;;;9.32;100.00;99964.09;5032285;28;20119;-63
2023/01/12 06:03:12;;;;;;;20.05;4.47;;;;;;;9.70;100.00;100021.16;5031464;28;20087;-62
2023/01/12 06:05:37;;;;;;;22.35;4.57;;;;;;;9.79;100.00;100068.09;5029838;28;20145;-61
2023/01/12 06:08:03;;;;;;;19.75;5.28;;;;;;;9.75;100.00;100020.97;4995655;28;20037;-66
2023/01/12 06:10:28;;;;;;;22.00;5.55;;;;;;;9.88;100.00;100033.53;5031684;28;20029;-64
2023/01/12 06:15:38;;;;;;;33.75;5.97;;;;;;;9.97;100.00;100069.09;5031618;28;20040;-62
2023/01/12 06:18:04;;;;;;;27.88;6.22;;;;;;;9.97;100.00;100050.69;5032039;28;20038;-62
2023/01/12 06:20:31;;;;;;;38.65;7.00;;;;;;;10.01;100.00;100032.06;5031920;28;20038;-62
2023/01/12 06:23:01;;;;;;;27.15;5.95;;;;;;;10.06;100.00;100073.97;5029924;28;20044;-61
2023/01/12 06:25:28;;;;;;;31.00;6.80;;;;;;;9.99;100.00;100026.03;5031864;28;20472;-63
2023/01/12 06:27:55;;;;;;;31.02;7.00;;;;;;;10.08;100.00;100066.88;5032136;28;20139;-63
2023/01/12 06:30:21;;;;;;;32.80;7.25;;;;;;;10.08;100.00;100067.72;5013857;28;20056;-63
2023/01/12 06:32:46;;;;;;;37.88;8.05;;;;;;;9.63;100.00;99939.09;5032113;28;20131;-62
2023/01/12 06:35:12;;;;;;;34.97;7.43;;;;;;;10.19;100.00;100048.88;5014520;28;20496;-64
2023/01/12 06:37:37;;;;;;;31.80;6.45;;;;;;;9.79;100.00;99983.13;5031983;28;20025;-61
2023/01/12 06:40:06;;;;;;;42.17;9.00;;;;;;;10.20;100.00;100055.84;5031746;28;20484;-61
2023/01/12 06:42:32;;;;;;;46.08;7.78;;;;;;;10.24;100.00;100057.44;5032333;28;20277;-63
2023/01/12 06:44:59;;;;;;;39.75;8.18;;;;;;;10.27;100.00;100065.22;5030889;28;20392;-63
2023/01/12 06:47:25;;;;;;;65.72;10.48;;;;;;;10.00;100.00;100024.28;5031494;28;20036;-61
2023/01/12 06:49:51;;;;;;;52.38;9.95;;;;;;;10.33;100.00;100061.44;5013855;28;20040;-60
2023/01/12 06:52:20;;;;;;;47.72;9.00;;;;;;;10.31;100.00;100053.59;5031293;28;20116;-61
2023/01/12 06:54:46;;;;;;;40.78;8.90;;;;;;;10.02;100.00;99998.75;5030562;28;20033;-60
2023/01/12 06:57:13;;;;;;;42.38;9.13;;;;;;;10.35;100.00;100085.91;5030601;28;20044;-62
2023/01/12 06:59:38;;;;;;;42.08;8.63;;;;;;;10.38;100.00;100086.63;5013396;28;20049;-60
2023/01/12 07:02:03;;;;;;;49.30;9.95;;;;;;;10.40;100.00;100079.53;5031424;28;20038;-60
2023/01/12 07:04:29;;;;;;;38.47;8.18;;;;;;;10.40;100.00;100086.56;5030905;28;20053;-61
2023/01/12 07:06:54;;;;;;;38.33;8.10;;;;;;;10.42;100.00;100074.22;5030878;28;20049;-61
2023/01/12 07:09:20;;;;;;;38.40;9.30;;;;;;;9.97;100.00;100000.75;5031579;28;20034;-59
2023/01/12 07:11:45;;;;;;;32.35;7.60;;;;;;;10.46;100.00;100078.41;5013742;28;20075;-60
2023/01/12 07:14:10;;;;;;;41.08;8.38;;;;;;;10.43;100.00;100103.06;5031815;28;20169;-60
2023/01/12 07:16:36;;;;;;;45.20;7.80;;;;;;;10.01;100.00;100018.94;5031355;28;20044;-62
2023/01/12 07:19:01;;;;;;;36.20;7.53;;;;;;;10.06;100.00;100022.25;5013706;28;20045;-60
2023/01/12 07:21:27;;;;;;;37.42;8.38;;;;;;;10.41;100.00;100114.59;5034277;28;20040;-58
2023/01/12 07:23:52;;;;;;;36.38;8.45;;;;;;;10.01;100.00;100029.44;5035426;28;20503;-59
2023/01/12 07:26:17;;;;;;;43.38;8.20;;;;;;;10.29;100.00;100088.78;5035356;28;20029;-61
2023/01/12 07:28:43;;;;;;;40.30;8.30;;;;;;;10.36;100.00;100106.03;5017603;28;20069;-60
2023/01/12 07:31:08;;;;;;;42.58;8.27;;;;;;;10.03;100.00;100053.94;5035209;28;20037;-60
2023/01/12 07:33:35;;;;;;;32.65;7.47;;;;;;;10.09;100.00;100061.56;5035129;28;20037;-59
2023/01/12 07:36:01;;;;;;;34.25;7.07;;;;;;;10.02;100.00;100064.50;5035237;28;20030;-59
2023/01/12 07:38:27;;;;;;;33.42;7.32;;;;;;;10.40;100.00;100139.16;5017332;28;20400;-60
2023/01/12 07:40:53;;;;;;;32.00;8.18;;;;;;;10.34;100.00;100119.25;5017110;28;20033;-62
2023/01/12 07:43:19;;;;;;;39.05;8.05;;;;;;;10.32;100.00;100113.19;5015792;28;20032;-62
2023/01/12 07:45:45;;;;;;;36.95;7.55;;;;;;;10.38;100.00;100119.97;5016719;28;20121;-60
2023/01/12 07:48:10;;;;;;;37.10;7.35;;;;;;;10.40;100.00;100124.25;5034501;28;20064;-60
2023/01/12 07:50:35;;;;;;;38.53;8.15;;;;;;;9.92;100.00;100060.56;5034523;28;20464;-60
2023/01/12 07:53:01;;;;;;;39.42;8.25;;;;;;;10.40;100.00;100132.13;5034960;28;20132;-60
2023/01/12 07:55:27;;;;;;;47.38;8.93;;;;;;;9.91;100.00;100043.91;5017076;28;20025;-60
2023/01/12 07:58:00;;;;;;;41.22;8.32;;;;;;;10.40;100.00;100150.56;5017241;28;20079;-60
2023/01/12 08:00:26;;;;;;;39.78;8.50;;;;;;;10.40;100.00;100145.28;5034509;28;20042;-60
2023/01/12 08:02:53;;;;;;;37.10;8.27;;;;;;;10.06;100.00;100081.84;5034522;28;20033;-60
2023/01/12 08:05:19;;;;;;;37.78;6.93;;;;;;;10.28;100.00;100102.84;5034516;28;20060;-59
2023/01/12 08:07:44;;;;;;;37.03;9.05;;;;;;;10.28;100.00;100127.38;5034478;28;20045;-60
2023/01/12 08:10:11;;;;;;;41.83;8.38;;;;;;;10.08;100.00;100095.78;5016892;28;20053;-60
2023/01/12 08:12:36;;;;;;;30.52;5.82;;;;;;;10.09;100.00;100098.38;5016765;28;20116;-60
2023/01/12 08:15:03;;;;;;;33.47;7.40;;;;;;;10.43;100.00;100147.78;5034295;28;20395;-61
2023/01/12 08:17:31;;;;;;;33.00;7.53;;;;;;;10.52;100.00;100172.84;5014180;28;20063;-61
2023/01/12 08:20:04;;;;;;;33.50;7.07;;;;;;;10.26;100.00;100091.56;5033015;28;20416;-61
2023/01/12 08:22:34;;;;;;;34.70;8.02;;;;;;;10.57;100.00;100147.19;5014576;28;20453;-62
2023/01/12 08:25:05;;;;;;;29.27;6.57;;;;;;;10.54;100.00;100153.44;5032637;28;20033;-60
2023/01/12 08:27:32;;;;;;;34.30;7.13;;;;;;;10.62;100.00;100166.28;5015908;28;20048;-59
2023/01/12 08:29:58;;;;;;;43.42;6.70;;;;;;;10.66;100.00;100163.44;5032653;28;20051;-60
2023/01/12 08:32:25;;;;;;;27.63;6.38;;;;;;;10.27;100.00;100096.78;5014895;28;20042;-62
2023/01/12 08:34:52;;;;;;;40.65;7.82;;;;;;;10.67;100.00;100165.16;5033182;28;20091;-59
2023/01/12 08:37:21;;;;;;;37.00;8.55;;;;;;;10.56;100.00;100154.25;5015534;28;20022;-59
2023/01/12 08:39:47;;;;;;;40.35;8.32;;;;;;;10.70;100.00;100182.59;5033263;28;20030;-59
2023/01/12 08:42:12;;;;;;;38.88;8.38;;;;;;;10.32;100.00;100114.97;5015264;28;20064;-59
2023/01/12 08:44:38;;;;;;;37.03;8.00;;;;;;;10.74;100.00;100198.19;5032075;28;20048;-60
2023/01/12 08:47:04;;;;;;;34.83;8.63;;;;;;;10.42;100.00;100139.97;5031625;28;20042;-60
2023/01/12 08:49:32;;;;;;;40.35;8.57;;;;;;;10.79;100.00;100189.25;5032446;28;20044;-60
2023/01/12 08:51:57;;;;;;;44.28;9.23;;;;;;;10.77;100.00;100191.09;5032520;28;20611;-60
2023/01/12 08:54:23;;;;;;;42.25;9.48;;;;;;;10.53;100.00;100157.00;5031701;28;20120;-60
2023/01/12 08:56:49;;;;;;;43.88;8.50;;;;;;;10.81;100.00;100176.84;5014711;28;20033;-60
2023/01/12 08:59:15;;;;;;;45.25;9.35;;;;;;;10.84;100.00;100167.06;5031736;28;20084;-60
2023/01/12 09:01:40;;;;;;;39.30;8.13;;;;;;;10.88;100.00;100188.84;5032561;28;20053;-59
2023/01/12 09:04:06;;;;;;;37.88;8.65;;;;;;;10.86;100.00;100191.53;5015254;28;20476;-61
2023/01/12 09:06:34;;;;;;;44.53;9.10;;;;;;;10.89;100.00;100204.56;5015665;28;20400;-60
2023/01/12 09:09:02;;;;;;;39.63;8.63;;;;;;;10.56;100.00;100148.13;5033290;28;20033;-60
2023/01/12 09:11:29;;;;;;;49.53;9.10;;;;;;;10.49;100.00;100121.22;4999056;28;20043;-60
2023/01/12 09:13:55;;;;;;;44.10;9.52;;;;;;;10.85;100.00;100221.44;5015834;28;20129;-60
2023/01/12 09:16:21;;;;;;;42.20;10.75;;;;;;;10.60;100.00;100161.06;5033417;28;20361;-60
2023/01/12 09:18:46;;;;;;;41.60;8.75;;;;;;;10.98;100.00;100237.53;5015515;28;20357;-60
2023/01/12 09:21:14;;;;;;;45.88;10.38;;;;;;;10.99;100.00;100220.81;5033096;28;20540;-60
2023/01/12 09:23:40;;;;;;;40.60;9.45;;;;;;;10.98;100.00;100227.00;5032975;28;20448;-60
2023/01/12 09:26:07;;;;;;;43.05;10.55;;;;;;;10.63;100.00;100170.59;5032876;28;20044;-61
2023/01/12 09:28:33;;;;;;;36.92;9.02;;;;;;;11.05;100.00;100246.88;5032923;28;20053;-60
2023/01/12 09:31:00;;;;;;;34.53;8.70;;;;;;;10.80;100.00;100204.97;5032620;28;20076;-61
2023/01/12 09:33:26;;;;;;;28.70;7.10;;;;;;;10.65;100.00;100171.44;5015231;28;20025;-60
2023/01/12 09:35:51;;;;;;;40.00;8.50;;;;;;;10.67;100.00;100173.06;5033113;28;20112;-60
2023/01/12 09:38:17;;;;;;;38.58;7.38;;;;;;;10.85;100.00;100204.78;5032569;28;20041;-60
2023/01/12 09:40:42;;;;;;;31.98;8.07;;;;;;;11.13;100.00;100244.78;5032640;28;20084;-61
2023/01/12 09:48:40;;;;;;;31.52;7.25;;;;;;;11.15;100.00;100264.00;5031642;28;20048;-59
2023/01/12 09:51:27;;;;;;;24.85;6.10;;;;;;;11.20;100.00;100267.31;5013384;28;20041;-60
2023/01/12 09:53:53;;;;;;;29.30;6.82;;;;;;;11.01;100.00;100250.56;5031326;28;20034;-60
2023/01/12 09:56:28;;;;;;;29.10;6.75;;;;;;;11.14;100.00;100280.75;5014032;28;20041;-60
2023/01/12 09:59:24;;;;;;;32.25;6.90;;;;;;;11.12;100.00;100280.78;5013375;28;20052;-60
2023/01/12 10:01:51;;;;;;;32.20;7.22;;;;;;;10.79;100.00;100232.22;5031332;28;20036;-59
2023/01/12 10:04:16;;;;;;;37.28;8.52;;;;;;;10.63;100.00;100226.75;5013203;28;20059;-59
2023/01/12 10:06:42;;;;;;;32.17;7.30;;;;;;;10.63;100.00;100228.50;5013229;28;20037;-59
2023/01/12 10:09:25;;;;;;;44.72;7.90;;;;;;;10.84;100.00;100277.63;5013430;28;20045;-60
2023/01/12 10:11:58;;;;;;;32.05;7.20;;;;;;;10.74;100.00;100260.50;5031011;28;20107;-61
2023/01/12 10:14:32;;;;;;;34.58;7.35;;;;;;;10.89;100.00;100295.84;5031005;28;20056;-60
2023/01/12 10:17:26;;;;;;;41.25;9.40;;;;;;;10.90;100.00;100303.69;5029155;28;20305;-61
2023/01/12 10:20:06;;;;;;;39.67;7.47;;;;;;;10.91;100.00;100281.72;5024599;28;20033;-59
2023/01/12 10:22:39;;;;;;;43.43;7.73;;;;;;;10.92;100.00;100324.69;5030282;28;20021;-59
2023/01/12 10:25:13;;;;;;;38.65;8.68;;;;;;;10.87;100.00;100316.13;5029252;28;20040;-60
2023/01/12 10:27:41;;;;;;;36.75;7.93;;;;;;;10.83;100.00;100283.81;5030029;28;20037;-60
2023/01/12 10:30:13;;;;;;;36.13;7.70;;;;;;;10.56;100.00;100241.09;5012007;28;20088;-59
2023/01/12 10:32:39;;;;;;;32.67;6.47;;;;;;;10.93;100.00;100303.56;5030042;28;20038;-60
2023/01/12 10:35:12;;;;;;;33.75;7.22;;;;;;;10.82;100.00;100283.88;5029819;28;20045;-59
2023/01/12 10:37:52;;;;;;;36.88;7.47;;;;;;;10.96;100.00;100300.81;5030155;28;20435;-59
2023/01/12 10:40:26;;;;;;;36.63;6.73;;;;;;;10.97;100.00;100305.16;5014162;28;20036;-62
2023/01/12 10:43:22;;;;;;;37.38;7.05;;;;;;;10.57;100.00;100236.66;5029594;28;20098;-62
2023/01/12 10:45:53;;;;;;;41.33;7.63;;;;;;;11.00;100.00;100293.66;5013609;28;20442;-62
2023/01/12 10:48:21;;;;;;;36.15;7.10;;;;;;;11.05;100.00;100294.28;5012023;28;20036;-61
2023/01/12 10:51:25;;;;;;;41.13;8.32;;;;;;;11.07;100.00;100302.97;5029957;28;20028;-60
2023/01/12 10:53:53;;;;;;;34.88;8.40;;;;;;;10.94;100.00;100228.94;4948742;28;20485;-61
2023/01/12 10:56:21;;;;;;;28.75;7.82;;;;;;;11.12;100.00;100308.94;5032357;28;20111;-60
2023/01/12 10:59:06;;;;;;;35.65;7.82;;;;;;;10.82;100.00;100250.53;5016976;28;20033;-59
2023/01/12 11:02:07;;;;;;;31.42;7.40;;;;;;;11.17;100.00;100281.47;5017265;28;20060;-59
2023/01/12 11:04:38;;;;;;;31.20;6.90;;;;;;;11.13;100.00;100273.75;5007540;28;20056;-61
2023/01/12 11:07:27;;;;;;;26.98;6.20;;;;;;;11.20;100.00;100293.66;5035070;28;20029;-60
2023/01/12 11:09:54;;;;;;;35.13;6.63;;;;;;;11.23;100.00;100309.31;5018254;28;20420;-61
2023/01/12 11:12:39;;;;;;;31.13;6.45;;;;;;;11.22;100.00;100290.00;5014483;28;20792;-60
2023/01/12 11:15:11;;;;;;;34.28;7.43;;;;;;;11.23;100.00;100285.59;5008067;28;20479;-59
2023/01/12 11:17:54;;;;;;;33.30;7.47;;;;;;;11.23;100.00;100288.25;5034627;28;20087;-60
2023/01/12 11:20:30;;;;;;;34.60;7.00;;;;;;;11.26;100.00;100293.38;5019218;28;20365;-60
2023/01/12 11:22:59;;;;;;;31.30;6.90;;;;;;;10.86;100.00;100199.44;5034596;28;20018;-61
2023/01/12 11:25:25;;;;;;;33.05;7.75;;;;;;;11.26;100.00;100296.00;5015841;28;20069;-61
2023/01/12 11:27:57;;;;;;;31.42;7.65;;;;;;;10.92;100.00;100222.84;5016653;28;20029;-61
2023/01/12 11:30:50;;;;;;;34.25;6.55;;;;;;;11.33;100.00;100279.00;5015381;28;20029;-61
2023/01/12 11:33:22;;;;;;;32.50;7.25;;;;;;;11.32;100.00;100292.25;4989089;28;20120;-62
2023/01/12 11:35:55;;;;;;;28.95;5.80;;;;;;;11.02;100.00;100224.19;5034638;28;20026;-61
2023/01/12 11:38:26;;;;;;;37.85;7.55;;;;;;;11.31;100.00;100288.75;5016455;28;20137;-61
2023/01/12 11:40:54;;;;;;;;;;;;;;;11.34;100.00;100277.22;5016899;28;20098;-61
2023/01/12 11:43:50;;;;;;;27.15;6.47;;;;;;;11.32;100.00;100272.03;5016620;28;19909;-62
2023/01/12 11:46:21;;;;;;;27.95;6.05;;;;;;;11.34;100.00;100259.63;5003074;28;20551;-61
2023/01/12 11:49:05;;;;;;;33.35;7.65;;;;;;;11.34;100.00;100261.41;5034230;28;20033;-62
2023/01/12 11:51:30;;;;;;;30.77;5.47;;;;;;;10.96;100.00;100205.16;5033709;28;20401;-61